KAAF/AAF METAR and TAF weather

Enter ICAO airport designator
Station Type Date Time Source
KAAF METAR 2022/05/25 00:53 UTC NOAA

KAAF 250053Z AUTO 12003KT 10SM CLR 26/24 A2999 RMK AO2 SLP156 T02560239 $


Station Type Date Time Source
KAAF Decoded METAR 2022/05/25 00:53 UTC NOAA

APALACHICOLA MUNICIPAL AIRPORT, FL, United States (KAAF) 29-44N 085-01W 5M
May 24, 2022 - 08:53 PM EDT / 2022.05.25 0053 UTC
Wind: from the ESE (120 degrees) at 3 MPH (3 KT):0
Visibility: 10 mile(s):0
Sky conditions: clear
Temperature: 78.1 F (25.6 C)
Dew Point: 75.0 F (23.9 C)
Relative Humidity: 90%
Pressure (altimeter): 29.99 in. Hg (1015 hPa)
ob: KAAF 250053Z AUTO 12003KT 10SM CLR 26/24 A2999 RMK AO2 SLP156 T02560239
cycle: 1

Station Type Date Time Source
KAAF TAF UTC NOAA

Error!

Example: see airport list